Список аэропортов
Фактическая погода:

19 августа, 04:30
Температура: +24°C (+24.0*)
Ветер: перем. 1 м/с
Давление: *761 мм
Без существ. явл.
Время (МСК)Темп. СВетерВлажностьДавлениеОблачностьОсадки
03:00+21С, 3 м/с52%1014 гПаясно
04:00+21С, 4 м/с65%1014 гПаясно
05:00+21СВ, 3 м/с70%1014 гПаясно
06:00+20СВ, 4 м/с71%1014 гПаясно
07:00+20СВ, 4 м/с72%1015 гПаясно
08:00+19СВ, 4 м/с74%1015 гПаясно
09:00+18СВ, 3 м/с76%1015 гПаясно
10:00+19СВ, 4 м/с70%1015 гПаясно
11:00+21СВ, 4 м/с61%1015 гПаоблачно
12:00+24СВ, 2 м/с52%1014 гПаоблачно
13:00+25В, 1 м/с47%1014 гПаоблачно
14:00+28ЮЗ, 1 м/с40%1014 гПаоблачно
15:00+30ЮЗ, 3 м/с32%1013 гПамалооблачно
16:00+32ЮЗ, 4 м/с28%1012 гПамалооблачно
17:00+33ЮЗ, 5 м/с25%1011 гПаясно
18:00+33ЮЗ, 6 м/с25%1011 гПаясно
19:00+33ЮЗ, 6 м/с26%1011 гПамалооблачно
20:00+32ЮЗ, 5 м/с29%1010 гПаоблачно
21:00+31ЮЗ, 5 м/с30%1010 гПаоблачно
22:00+30З, 4 м/с30%1011 гПаоблачно
23:00+29З, 5 м/с26%1012 гПас прояснениями
20 августа
00:00+27З, 3 м/с28%1013 гПаоблачно
01:00+26С, 2 м/с39%1013 гПаоблачно
02:00+24СВ, 2 м/с46%1013 гПаоблачно
03:00+23СВ, 2 м/с50%1014 гПаоблачно
04:00+23СЗ, 1 м/с54%1014 гПаоблачно
05:00+22З, 1 м/с59%1013 гПаоблачно
06:00+22З, 1 м/с61%1013 гПаоблачно
07:00+21З, 1 м/с63%1014 гПаоблачно
08:00+21СЗ, 2 м/с65%1014 гПаоблачно
09:00+20СЗ, 1 м/с68%1015 гПаоблачно
10:00+21СЗ, 1 м/с65%1015 гПас прояснениями
11:00+23Штиль 55%1015 гПамалооблачно
12:00+24ЮЗ, 1 м/с49%1015 гПамалооблачно
13:00+26ЮЗ, 1 м/с39%1015 гПаясно
14:00+28ЮЗ, 2 м/с29%1014 гПаясно
15:00+29ЮЗ, 2 м/с25%1014 гПаясно
16:00+30ЮЗ, 2 м/с23%1014 гПаясно
17:00+31З, 1 м/с22%1013 гПаясно
18:00+31СЗ, 1 м/с21%1013 гПамалооблачно
19:00+31С, 3 м/с25%1014 гПамалооблачно
20:00+30С, 5 м/с28%1014 гПас прояснениями
21:00+28С, 6 м/с29%1015 гПамалооблачно
22:00+26С, 7 м/с37%1017 гПамалооблачно
23:00+24С, 7 м/с45%1018 гПаясно
21 августа
00:00+22С, 7 м/с51%1019 гПамалооблачно
01:00+21СВ, 8 м/с51%1020 гПаясно
02:00+19СВ, 8 м/с54%1021 гПаясно
03:00+18СВ, 7 м/с53%1021 гПаоблачно